Time;durP1;ratioP1;P1;durP2;ratioP2;P2;SDS_P1;SDS_P2;PMS_P1;PMS_P2;Temp;Humidity;BMP_temperature;BMP_pressure;BME280_temperature;BME280_humidity;BME280_pressure;Samples;Min_cycle;Max_cycle;Signal;HPM_P1;HPM_P2
2022/04/25 00:01:14;;;;;;;16.80;14.88;;;;;;;8.69;100.00;98250.53;5057043;28;20040;-85
2022/04/25 00:03:40;;;;;;;18.25;16.38;;;;;;;8.66;100.00;98252.47;5012166;28;20183;-85
2022/04/25 00:06:05;;;;;;;17.85;15.80;;;;;;;8.62;100.00;98248.41;4996198;28;20083;-85
2022/04/25 00:08:31;;;;;;;15.98;14.43;;;;;;;8.69;100.00;98262.69;4995713;28;20619;-85
2022/04/25 00:10:57;;;;;;;17.63;13.90;;;;;;;8.63;100.00;98244.88;4995764;28;20049;-85
2022/04/25 00:13:23;;;;;;;14.95;13.52;;;;;;;8.66;100.00;98262.88;4995936;28;20058;-85
2022/04/25 00:15:48;;;;;;;14.98;13.48;;;;;;;8.58;100.00;98257.31;4996039;28;20049;-85
2022/04/25 00:18:14;;;;;;;14.10;12.80;;;;;;;8.59;100.00;98261.56;4995931;28;20490;-85
2022/04/25 00:20:39;;;;;;;13.15;11.88;;;;;;;8.53;100.00;98255.00;4995619;28;20520;-84
2022/04/25 00:23:05;;;;;;;11.35;10.25;;;;;;;8.60;100.00;98261.50;4995816;28;20193;-86
2022/04/25 00:25:34;;;;;;;12.98;11.65;;;;;;;8.58;100.00;98258.13;4995663;28;20026;-85
2022/04/25 00:28:02;;;;;;;12.95;11.60;;;;;;;8.56;100.00;98269.56;4992623;28;20038;-85
2022/04/25 00:30:31;;;;;;;12.40;11.10;;;;;;;8.54;100.00;98272.22;4992418;28;20160;-85
2022/04/25 00:32:58;;;;;;;12.30;11.10;;;;;;;8.53;100.00;98272.31;4976251;28;20038;-85
2022/04/25 00:35:24;;;;;;;11.75;10.68;;;;;;;8.39;100.00;98253.25;5039621;28;20033;-85
2022/04/25 00:37:51;;;;;;;12.23;10.75;;;;;;;8.39;100.00;98253.25;5034837;28;20473;-85
2022/04/25 00:40:21;;;;;;;10.75;9.75;;;;;;;8.47;100.00;98276.97;5034821;28;20048;-85
2022/04/25 00:42:48;;;;;;;14.05;10.85;;;;;;;8.36;100.00;98249.94;5034817;28;20476;-85
2022/04/25 00:45:14;;;;;;;9.68;8.77;;;;;;;8.37;100.00;98256.84;5034875;28;20036;-85
2022/04/25 00:47:41;;;;;;;10.18;9.20;;;;;;;8.36;100.00;98261.16;5034502;28;20040;-85
2022/04/25 00:50:08;;;;;;;10.45;9.45;;;;;;;8.39;100.00;98268.81;5051363;28;20044;-85
2022/04/25 00:52:34;;;;;;;10.48;9.43;;;;;;;8.37;100.00;98262.84;5034340;28;20028;-85
2022/04/25 00:55:01;;;;;;;9.50;8.60;;;;;;;8.31;100.00;98255.41;5051468;28;20082;-85
2022/04/25 00:57:27;;;;;;;8.93;8.10;;;;;;;8.32;100.00;98267.47;5034361;28;20526;-85
2022/04/25 00:59:56;;;;;;;8.95;8.07;;;;;;;8.35;100.00;98269.03;5070647;28;20622;-85
2022/04/25 01:02:22;;;;;;;9.70;8.77;;;;;;;8.32;100.00;98269.22;5055501;28;20071;-85
2022/04/25 01:04:47;;;;;;;9.57;8.65;;;;;;;8.30;100.00;98269.31;5055549;28;20028;-85
2022/04/25 01:07:12;;;;;;;8.95;8.15;;;;;;;8.29;100.00;98272.00;5055120;28;20031;-85
2022/04/25 01:09:38;;;;;;;10.85;9.57;;;;;;;8.28;100.00;98267.72;5073313;28;20021;-85
2022/04/25 01:12:04;;;;;;;10.20;9.20;;;;;;;8.27;100.00;98274.69;5073589;28;20040;-85
2022/04/25 01:14:29;;;;;;;10.48;9.48;;;;;;;8.24;100.00;98273.09;5073176;28;20422;-85
2022/04/25 01:16:55;;;;;;;10.00;9.10;;;;;;;8.21;100.00;98262.06;5073687;28;20032;-85
2022/04/25 01:19:20;;;;;;;10.10;9.20;;;;;;;8.11;100.00;98247.97;5055384;28;20066;-86
2022/04/25 01:22:01;;;;;;;10.23;9.20;;;;;;;8.20;100.00;98260.41;5055035;28;20035;-85
2022/04/25 01:27:17;;;;;;;10.30;9.30;;;;;;;8.18;100.00;98259.66;5073329;28;20043;-85
2022/04/25 01:29:53;;;;;;;9.20;8.32;;;;;;;8.15;100.00;98263.25;5054906;28;20024;-85
2022/04/25 01:32:21;;;;;;;10.35;9.35;;;;;;;8.18;100.00;98264.84;5073063;28;20024;-85
2022/04/25 01:34:47;;;;;;;9.95;8.77;;;;;;;8.15;100.00;98262.44;5054958;28;20028;-85
2022/04/25 01:37:14;;;;;;;8.77;7.97;;;;;;;8.10;100.00;98252.34;5055215;28;20472;-85
2022/04/25 01:39:51;;;;;;;10.13;9.13;;;;;;;8.16;100.00;98259.75;5054756;28;20017;-85
2022/04/25 01:42:17;;;;;;;9.40;8.50;;;;;;;8.04;100.00;98238.88;5054995;28;20020;-85
2022/04/25 01:44:43;;;;;;;9.25;8.45;;;;;;;8.10;100.00;98256.69;5072602;28;20029;-85
2022/04/25 01:47:09;;;;;;;10.80;9.70;;;;;;;8.12;100.00;98265.19;5054930;28;20115;-85
2022/04/25 01:49:36;;;;;;;9.73;8.77;;;;;;;8.02;100.00;98245.94;5054686;28;20568;-85
2022/04/25 01:52:24;;;;;;;9.52;8.52;;;;;;;8.10;100.00;98264.47;5054826;28;20051;-85
2022/04/25 01:54:50;;;;;;;11.90;9.40;;;;;;;8.09;100.00;98265.38;4991010;28;20035;-85
2022/04/25 01:57:16;;;;;;;10.57;9.48;;;;;;;8.07;100.00;98262.88;4974656;28;20461;-85
2022/04/25 01:59:43;;;;;;;10.20;9.20;;;;;;;8.04;100.00;98265.63;4974305;28;20042;-86
2022/04/25 02:02:09;;;;;;;9.95;8.98;;;;;;;8.04;100.00;98264.81;4974569;28;20644;-86
2022/04/25 02:04:34;;;;;;;9.15;8.32;;;;;;;7.98;100.00;98260.81;4974304;28;20121;-85
2022/04/25 02:07:00;;;;;;;10.60;9.55;;;;;;;7.95;100.00;98255.81;4974387;28;20375;-85
2022/04/25 02:09:25;;;;;;;10.35;8.63;;;;;;;8.03;100.00;98270.94;4951801;29;20125;-85
2022/04/25 02:11:50;;;;;;;10.43;9.38;;;;;;;7.97;100.00;98262.59;4935525;29;20086;-85
2022/04/25 02:14:16;;;;;;;9.02;8.23;;;;;;;7.99;100.00;98275.44;4951781;29;20402;-85
2022/04/25 02:16:42;;;;;;;9.93;8.93;;;;;;;7.98;100.00;98276.38;4951746;28;20035;-85
2022/04/25 02:19:08;;;;;;;9.82;8.93;;;;;;;7.96;100.00;98273.91;4935501;29;20031;-85
2022/04/25 02:21:33;;;;;;;10.10;9.15;;;;;;;7.93;100.00;98279.25;4935508;29;20596;-85
2022/04/25 02:23:59;;;;;;;10.52;9.52;;;;;;;7.82;100.00;98265.22;4935672;29;20032;-85
2022/04/25 02:26:25;;;;;;;11.05;9.93;;;;;;;7.84;100.00;98277.19;4935663;29;20046;-86
2022/04/25 02:28:54;;;;;;;10.65;9.70;;;;;;;7.82;100.00;98281.59;4935397;29;20061;-85
2022/04/25 02:31:20;;;;;;;10.35;9.35;;;;;;;7.81;100.00;98289.47;4957118;28;20607;-85
2022/04/25 02:33:46;;;;;;;10.98;9.95;;;;;;;7.71;100.00;98273.59;5012953;28;20121;-86
2022/04/25 02:36:12;;;;;;;12.02;9.70;;;;;;;7.78;100.00;98284.47;5013050;28;20508;-85
2022/04/25 02:38:39;;;;;;;11.65;10.43;;;;;;;7.83;100.00;98305.78;5013012;28;20384;-85
2022/04/25 02:41:05;;;;;;;10.15;9.15;;;;;;;7.76;100.00;98287.16;5041467;28;20053;-86
2022/04/25 02:43:36;;;;;;;11.27;9.93;;;;;;;7.73;100.00;98295.09;5050604;28;20103;-85
2022/04/25 02:46:03;;;;;;;12.43;10.05;;;;;;;7.74;100.00;98305.38;5050688;28;20044;-85
2022/04/25 02:48:30;;;;;;;10.95;9.85;;;;;;;7.72;100.00;98304.63;5050340;28;20116;-86
2022/04/25 02:50:55;;;;;;;10.40;9.40;;;;;;;7.71;100.00;98299.50;5050571;28;20457;-85
2022/04/25 02:53:24;;;;;;;11.00;10.00;;;;;;;7.74;100.00;98304.53;5050475;28;20127;-86
2022/04/25 02:55:50;;;;;;;11.63;10.43;;;;;;;7.71;100.00;98300.38;5050291;28;20033;-85
2022/04/25 02:58:15;;;;;;;11.43;10.32;;;;;;;7.71;100.00;98304.69;5050940;28;20404;-85
2022/04/25 03:00:41;;;;;;;11.05;9.95;;;;;;;7.63;100.00;98287.00;5050295;28;20037;-82
2022/04/25 03:03:06;;;;;;;10.30;9.30;;;;;;;7.69;100.00;98293.59;5051741;28;20167;-85
2022/04/25 03:05:32;;;;;;;9.75;8.80;;;;;;;7.74;100.00;98305.38;5050137;28;20032;-85
2022/04/25 03:07:57;;;;;;;12.13;11.02;;;;;;;7.71;100.00;98309.88;5050229;28;20021;-85
2022/04/25 03:10:22;;;;;;;11.27;10.18;;;;;;;7.71;100.00;98308.16;5050381;28;20507;-85
2022/04/25 03:12:48;;;;;;;12.05;10.85;;;;;;;7.65;100.00;98295.53;5050344;28;20055;-85
2022/04/25 03:15:13;;;;;;;11.63;10.25;;;;;;;7.59;100.00;98292.47;5050301;28;20024;-85
2022/04/25 03:17:39;;;;;;;14.30;12.15;;;;;;;7.67;100.00;98311.84;5050083;28;20025;-85
2022/04/25 03:20:05;;;;;;;12.10;10.90;;;;;;;7.66;100.00;98314.50;5009246;28;20084;-85
2022/04/25 03:22:31;;;;;;;11.68;10.57;;;;;;;7.57;100.00;98308.06;4992643;28;20044;-85
2022/04/25 03:24:56;;;;;;;11.70;10.60;;;;;;;7.60;100.00;98315.69;5009441;28;20047;-85
2022/04/25 03:27:22;;;;;;;11.77;10.57;;;;;;;7.57;100.00;98317.59;5009332;28;20049;-85
2022/04/25 03:29:47;;;;;;;12.70;11.50;;;;;;;7.53;100.00;98316.94;4995541;28;20042;-85
2022/04/25 03:32:13;;;;;;;12.65;10.77;;;;;;;7.56;100.00;98332.31;4996795;28;20026;-85
2022/04/25 03:34:38;;;;;;;13.63;12.20;;;;;;;7.50;100.00;98324.91;5012886;28;20041;-85
2022/04/25 03:37:04;;;;;;;15.00;12.80;;;;;;;7.53;100.00;98334.25;4996703;28;20084;-85
2022/04/25 03:39:29;;;;;;;13.55;12.15;;;;;;;7.29;100.00;98308.78;4993359;28;20077;-85
2022/04/25 03:41:55;;;;;;;14.88;13.45;;;;;;;7.42;100.00;98350.38;4993126;28;20478;-85
2022/04/25 03:44:20;;;;;;;14.68;13.27;;;;;;;7.35;100.00;98347.28;4993387;28;20046;-85
2022/04/25 03:46:46;;;;;;;15.00;13.38;;;;;;;7.29;100.00;98349.34;4992985;28;20077;-84
2022/04/25 03:49:13;;;;;;;15.93;14.23;;;;;;;7.19;100.00;98336.06;4993257;28;20508;-85
2022/04/25 03:51:39;;;;;;;15.82;14.13;;;;;;;7.20;100.00;98353.28;5022170;28;20061;-85
2022/04/25 03:54:04;;;;;;;17.77;15.05;;;;;;;7.20;100.00;98350.69;5032650;28;20064;-84
2022/04/25 03:59:13;;;;;;;14.88;13.40;;;;;;;7.16;100.00;98356.94;5032832;28;20095;-84
2022/04/25 04:01:39;;;;;;;15.93;13.40;;;;;;;7.12;100.00;98353.72;5015696;28;20029;-85
2022/04/25 04:04:04;;;;;;;15.07;13.48;;;;;;;7.15;100.00;98363.06;5015862;28;20471;-85
2022/04/25 04:06:33;;;;;;;14.75;13.15;;;;;;;7.12;100.00;98365.78;5016064;28;20022;-85
2022/04/25 04:08:59;;;;;;;14.07;12.68;;;;;;;6.93;100.00;98338.31;5032274;28;20469;-85
2022/04/25 04:11:46;;;;;;;14.13;12.65;;;;;;;7.05;100.00;98370.47;5050878;28;20045;-85
2022/04/25 04:14:10;;;;;;;15.60;13.90;;;;;;;7.05;100.00;98367.06;5054387;28;20377;-85
2022/04/25 04:16:36;;;;;;;14.68;13.15;;;;;;;7.06;100.00;98377.31;5052946;28;20108;-85
2022/04/25 04:19:01;;;;;;;15.10;13.55;;;;;;;7.00;100.00;98375.91;5053441;28;20029;-85
2022/04/25 04:21:26;;;;;;;16.63;14.93;;;;;;;7.06;100.00;98379.91;5053432;28;20052;-85
2022/04/25 04:23:52;;;;;;;15.73;14.02;;;;;;;7.04;100.00;98389.53;5052875;28;20384;-85
2022/04/25 04:26:17;;;;;;;16.48;14.73;;;;;;;7.02;100.00;98398.28;5053260;28;20036;-85
2022/04/25 04:28:42;;;;;;;16.30;14.70;;;;;;;6.97;100.00;98401.09;5052751;28;20031;-85
2022/04/25 04:31:08;;;;;;;16.50;14.80;;;;;;;6.99;100.00;98407.88;5053005;28;20025;-86
2022/04/25 04:33:33;;;;;;;16.63;14.88;;;;;;;6.98;100.00;98403.59;5052968;28;20021;-85
2022/04/25 04:36:17;;;;;;;17.77;15.85;;;;;;;6.98;100.00;98402.78;5052884;28;20427;-86
2022/04/25 04:38:43;;;;;;;15.52;13.68;;;;;;;6.96;100.00;98408.03;5052794;28;20510;-85
2022/04/25 04:41:08;;;;;;;14.43;12.05;;;;;;;6.97;100.00;98417.47;5052118;28;20036;-85
2022/04/25 04:43:34;;;;;;;16.05;14.38;;;;;;;6.99;100.00;98422.56;5052689;28;20017;-85
2022/04/25 04:45:59;;;;;;;14.63;13.13;;;;;;;7.03;100.00;98421.47;5052478;28;20033;-85
2022/04/25 04:48:24;;;;;;;12.75;11.45;;;;;;;7.03;100.00;98437.00;5052763;28;20025;-85
2022/04/25 04:50:55;;;;;;;12.82;11.55;;;;;;;7.01;100.00;98431.09;5052566;28;20028;-85
2022/04/25 04:53:23;;;;;;;13.35;12.02;;;;;;;7.00;100.00;98432.84;5052679;28;20518;-86
2022/04/25 04:55:51;;;;;;;13.75;12.45;;;;;;;7.00;100.00;98425.09;5052342;28;20036;-86
2022/04/25 04:58:17;;;;;;;14.60;12.95;;;;;;;6.97;100.00;98427.00;5052487;28;20025;-86
2022/04/25 05:00:44;;;;;;;13.02;11.73;;;;;;;6.97;100.00;98443.34;5052450;28;20025;-86
2022/04/25 05:03:13;;;;;;;13.82;12.40;;;;;;;6.97;100.00;98445.94;5052601;28;20392;-86
2022/04/25 05:05:40;;;;;;;13.63;12.18;;;;;;;6.94;100.00;98442.66;5052259;28;20388;-86
2022/04/25 05:08:05;;;;;;;15.48;13.88;;;;;;;6.96;100.00;98451.22;5011122;28;20033;-85
2022/04/25 05:10:30;;;;;;;13.73;12.35;;;;;;;6.96;100.00;98451.22;5019466;28;20057;-86
2022/04/25 05:12:56;;;;;;;14.20;12.70;;;;;;;6.88;100.00;98443.00;5014317;28;20088;-86
2022/04/25 05:15:22;;;;;;;13.40;12.02;;;;;;;6.91;100.00;98448.84;5014421;28;20029;-86
2022/04/25 05:17:49;;;;;;;14.50;13.05;;;;;;;6.88;100.00;98445.59;5030869;28;20057;-86
2022/04/25 05:20:16;;;;;;;15.52;13.90;;;;;;;6.85;100.00;98443.97;5014565;28;20591;-86
2022/04/25 05:22:44;;;;;;;15.15;13.65;;;;;;;6.88;100.00;98463.69;5031140;28;20049;-86
2022/04/25 05:25:14;;;;;;;17.00;15.30;;;;;;;6.85;100.00;98461.25;5030974;28;20037;-86
2022/04/25 05:27:39;;;;;;;18.23;15.05;;;;;;;6.79;100.00;98464.16;5030489;28;20228;-85
2022/04/25 05:30:05;;;;;;;18.30;16.10;;;;;;;6.82;100.00;98476.94;5030779;28;20030;-86
2022/04/25 05:33:03;;;;;;;17.80;14.90;;;;;;;6.73;100.00;98463.53;5030603;28;20112;-85
2022/04/25 05:35:31;;;;;;;16.33;14.55;;;;;;;6.71;100.00;98467.97;4991321;28;20039;-86
2022/04/25 05:37:57;;;;;;;16.02;14.43;;;;;;;6.73;100.00;98471.31;4991886;28;20030;-86
2022/04/25 05:40:24;;;;;;;18.08;16.02;;;;;;;6.71;100.00;98473.16;5010944;28;20046;-87
2022/04/25 05:42:50;;;;;;;17.60;15.65;;;;;;;6.58;100.00;98455.72;4994219;28;20033;-87
2022/04/25 05:45:21;;;;;;;17.23;15.38;;;;;;;6.68;100.00;98480.22;4994313;28;20038;-86
2022/04/25 05:47:47;;;;;;;17.45;15.43;;;;;;;6.54;100.00;98459.38;4994017;28;20644;-86
2022/04/25 05:53:00;;;;;;;19.02;16.75;;;;;;;6.65;100.00;98485.53;5009893;28;20188;-86
2022/04/25 05:55:28;;;;;;;19.13;17.08;;;;;;;6.53;100.00;98486.13;4994238;28;20062;-86
2022/04/25 05:57:54;;;;;;;21.13;18.00;;;;;;;6.49;100.00;98490.63;5010375;28;20029;-86
2022/04/25 06:00:19;;;;;;;23.77;17.60;;;;;;;6.58;100.00;98497.13;4994044;28;20034;-76
2022/04/25 06:02:46;;;;;;;22.23;19.92;;;;;;;6.64;100.00;98501.97;5010261;28;20037;-76
2022/04/25 06:05:12;;;;;;;20.00;17.80;;;;;;;6.62;100.00;98489.13;5010415;28;20104;-76
2022/04/25 06:07:48;;;;;;;21.30;19.13;;;;;;;6.74;100.00;98523.88;5010666;28;20038;-86
2022/04/25 06:10:15;;;;;;;20.77;18.70;;;;;;;6.73;100.00;98528.22;5010864;28;20057;-86
2022/04/25 06:12:41;;;;;;;21.92;18.83;;;;;;;6.68;100.00;98522.44;5045873;28;20033;-86
2022/04/25 06:15:08;;;;;;;21.58;19.02;;;;;;;6.67;100.00;98525.94;5053159;28;20029;-86
2022/04/25 06:17:34;;;;;;;21.38;19.15;;;;;;;6.63;100.00;98519.25;5051417;28;20396;-86
2022/04/25 06:20:00;;;;;;;22.35;19.90;;;;;;;6.66;100.00;98523.44;5052821;28;20033;-85
2022/04/25 06:22:25;;;;;;;22.30;20.00;;;;;;;6.62;100.00;98524.50;5051750;28;20025;-85
2022/04/25 06:24:51;;;;;;;22.88;20.48;;;;;;;6.62;100.00;98527.09;5051505;28;20033;-86
2022/04/25 06:27:16;;;;;;;23.08;20.60;;;;;;;6.62;100.00;98534.88;5051376;28;20108;-86
2022/04/25 06:29:44;;;;;;;20.90;18.63;;;;;;;6.60;100.00;98537.50;5052919;28;20025;-85
2022/04/25 06:32:10;;;;;;;24.58;21.95;;;;;;;6.59;100.00;98538.44;5051299;28;20025;-86
2022/04/25 06:34:35;;;;;;;23.80;21.17;;;;;;;6.58;100.00;98529.00;5051784;28;20036;-85
2022/04/25 06:37:01;;;;;;;23.50;20.95;;;;;;;6.61;100.00;98534.00;5051560;28;20033;-86
2022/04/25 06:39:26;;;;;;;22.50;19.60;;;;;;;6.64;100.00;98538.19;5051464;28;20036;-86
2022/04/25 06:41:52;;;;;;;24.10;19.92;;;;;;;6.63;100.00;98526.19;5051343;28;20021;-86
2022/04/25 06:44:17;;;;;;;20.90;18.73;;;;;;;6.66;100.00;98542.41;5053060;28;20029;-86
2022/04/25 06:46:43;;;;;;;24.25;20.00;;;;;;;6.56;100.00;98514.44;5051178;28;20024;-86
2022/04/25 06:49:21;;;;;;;22.02;19.67;;;;;;;6.64;100.00;98523.50;5051346;28;20488;-86
2022/04/25 06:51:56;;;;;;;19.30;17.30;;;;;;;6.69;100.00;98534.47;5051042;28;20029;-86
2022/04/25 06:54:25;;;;;;;25.63;22.98;;;;;;;6.79;100.00;98546.97;5052568;28;20037;-86
2022/04/25 06:56:52;;;;;;;24.83;22.23;;;;;;;6.68;100.00;98531.97;5050770;28;20060;-86
2022/04/25 06:59:19;;;;;;;21.38;19.08;;;;;;;6.67;100.00;98533.72;5051010;28;20031;-87
2022/04/25 07:01:45;;;;;;;18.92;16.70;;;;;;;6.79;100.00;98563.34;5051006;28;20079;-86
2022/04/25 07:04:14;;;;;;;19.25;16.63;;;;;;;6.80;100.00;98544.31;5053233;28;20033;-86
2022/04/25 07:06:40;;;;;;;17.80;16.00;;;;;;;6.82;100.00;98555.41;5055402;28;20029;-87
2022/04/25 07:09:15;;;;;;;15.82;14.32;;;;;;;6.85;100.00;98569.97;5055050;28;20040;-87
2022/04/25 07:11:45;;;;;;;19.83;17.65;;;;;;;6.84;100.00;98556.19;5055284;28;20045;-88
2022/04/25 07:14:12;;;;;;;17.88;16.17;;;;;;;6.83;100.00;98559.69;5055420;28;20025;-87
2022/04/25 07:16:38;;;;;;;18.88;16.85;;;;;;;6.76;100.00;98545.38;5055317;28;20032;-86
2022/04/25 07:19:03;;;;;;;18.95;16.88;;;;;;;6.85;100.00;98557.84;5055016;28;20029;-86
2022/04/25 07:29:43;;;;;;;19.25;17.08;;;;;;;6.84;100.00;98581.22;5056472;28;20035;-87
2022/04/25 07:32:08;;;;;;;18.08;16.27;;;;;;;6.74;100.00;98573.06;5054477;28;20036;-86
2022/04/25 07:34:34;;;;;;;19.67;17.58;;;;;;;6.84;100.00;98589.00;5054808;28;20025;-86
2022/04/25 07:37:00;;;;;;;18.63;16.70;;;;;;;6.89;100.00;98585.25;5013382;28;20050;-86
2022/04/25 07:39:26;;;;;;;18.80;16.90;;;;;;;6.90;100.00;98583.50;5013631;28;20040;-86
2022/04/25 07:41:51;;;;;;;21.80;18.52;;;;;;;6.89;100.00;98597.38;5013716;28;20046;-87
2022/04/25 07:44:17;;;;;;;20.42;18.23;;;;;;;6.92;100.00;98599.81;4997552;28;20127;-85
2022/04/25 07:46:42;;;;;;;20.75;17.67;;;;;;;6.71;100.00;98573.22;5002655;28;20033;-87
2022/04/25 07:49:11;;;;;;;23.20;18.67;;;;;;;6.89;100.00;98605.13;5016706;28;20049;-87
2022/04/25 07:51:40;;;;;;;22.25;18.77;;;;;;;6.92;100.00;98613.59;5033078;28;20042;-87
2022/04/25 07:54:08;;;;;;;23.52;18.60;;;;;;;6.97;100.00;98611.63;5033125;28;20053;-88
2022/04/25 07:56:34;;;;;;;21.40;17.58;;;;;;;6.93;100.00;98622.19;5031684;28;20038;-87
2022/04/25 07:59:00;;;;;;;22.55;19.15;;;;;;;6.86;100.00;98613.03;5016574;28;20060;-86
2022/04/25 08:01:27;;;;;;;19.70;17.60;;;;;;;6.89;100.00;98624.09;5016402;28;20060;-87
2022/04/25 08:03:53;;;;;;;20.90;18.65;;;;;;;6.89;100.00;98618.91;5027600;28;20488;-88
2022/04/25 08:06:20;;;;;;;20.60;18.45;;;;;;;6.90;100.00;98633.53;5033105;28;20065;-87
2022/04/25 08:08:47;;;;;;;22.88;20.10;;;;;;;6.88;100.00;98626.75;5046842;28;20037;-87
2022/04/25 08:11:13;;;;;;;22.83;20.42;;;;;;;6.88;100.00;98631.94;5070460;28;20202;-86
2022/04/25 08:19:06;;;;;;;23.27;20.60;;;;;;;6.97;100.00;98644.44;5055214;28;20043;-86
2022/04/25 08:21:32;;;;;;;25.33;22.65;;;;;;;6.96;100.00;98645.34;5067177;28;20025;-86
2022/04/25 08:23:57;;;;;;;24.40;21.70;;;;;;;6.99;100.00;98645.19;5073711;28;20119;-87
2022/04/25 08:26:22;;;;;;;24.80;21.70;;;;;;;7.02;100.00;98641.63;5073839;28;20043;-87
2022/04/25 08:28:48;;;;;;;27.38;22.38;;;;;;;7.00;100.00;98639.13;5073353;28;20432;-86
2022/04/25 08:31:13;;;;;;;29.92;24.38;;;;;;;6.98;100.00;98646.94;5074891;28;20103;-86
2022/04/25 08:33:42;;;;;;;25.98;23.17;;;;;;;6.99;100.00;98651.22;5073880;28;20025;-86
2022/04/25 08:36:08;;;;;;;27.70;23.40;;;;;;;6.95;100.00;98654.88;5073358;28;20036;-86
2022/04/25 08:38:33;;;;;;;27.33;23.27;;;;;;;6.98;100.00;98666.81;5073477;28;20029;-85
2022/04/25 08:40:59;;;;;;;30.20;26.15;;;;;;;6.88;100.00;98655.22;5073373;28;20040;-86
2022/04/25 08:43:25;;;;;;;28.95;25.10;;;;;;;6.96;100.00;98666.06;5073535;28;20518;-87
2022/04/25 08:45:53;;;;;;;25.88;22.33;;;;;;;7.04;100.00;98666.53;5073619;28;20055;-87
2022/04/25 08:48:20;;;;;;;27.52;21.88;;;;;;;7.03;100.00;98662.25;5073449;28;20066;-86
2022/04/25 08:50:49;;;;;;;27.63;24.60;;;;;;;7.15;100.00;98668.59;5052073;28;20045;-86
2022/04/25 08:53:16;;;;;;;25.83;23.13;;;;;;;7.25;100.00;98675.03;5035124;28;20041;-86
2022/04/25 08:55:41;;;;;;;26.35;23.55;;;;;;;7.36;100.00;98677.91;5035309;28;20048;-86
2022/04/25 08:58:07;;;;;;;24.92;22.25;;;;;;;7.31;100.00;98681.66;5035036;28;20033;-86
2022/04/25 09:00:33;;;;;;;29.92;23.83;;;;;;;7.13;100.00;98675.63;5051997;28;20070;-85
2022/04/25 09:02:59;;;;;;;26.15;23.10;;;;;;;7.18;100.00;98689.19;5035120;28;20037;-86
2022/04/25 09:05:25;;;;;;;33.60;22.48;;;;;;;7.24;100.00;98688.88;5035264;28;20112;-86
2022/04/25 09:07:52;;;;;;;26.15;22.77;;;;;;;7.23;100.00;98684.59;5035058;28;20188;-87
2022/04/25 09:10:18;;;;;;;25.65;22.10;;;;;;;7.27;100.00;98703.44;5034674;28;20092;-86
2022/04/25 09:12:46;;;;;;;27.02;24.13;;;;;;;7.28;100.00;98703.34;5034733;28;20032;-86
2022/04/25 09:15:15;;;;;;;27.15;23.88;;;;;;;7.22;100.00;98701.06;5034516;28;20064;-87
2022/04/25 09:17:41;;;;;;;24.38;21.88;;;;;;;7.13;100.00;98712.72;5034858;28;20029;-86
2022/04/25 09:20:08;;;;;;;25.33;22.63;;;;;;;7.16;100.00;98709.09;5051310;28;20103;-86
2022/04/25 09:22:36;;;;;;;24.48;21.88;;;;;;;7.15;100.00;98715.22;5034681;28;20037;-87
2022/04/25 09:25:15;;;;;;;28.45;22.80;;;;;;;7.24;100.00;98735.47;5034299;28;20040;-86
2022/04/25 09:27:42;;;;;;;26.55;22.42;;;;;;;7.22;100.00;98722.63;5037332;28;20481;-87
2022/04/25 09:30:18;;;;;;;25.88;21.73;;;;;;;7.29;100.00;98730.94;5052227;28;20170;-87
2022/04/25 09:32:53;;;;;;;28.23;23.90;;;;;;;7.33;100.00;98729.88;5052421;28;20029;-87
2022/04/25 09:35:38;;;;;;;27.02;23.15;;;;;;;7.38;100.00;98734.84;5051909;28;20132;-87
2022/04/25 09:38:04;;;;;;;27.85;22.92;;;;;;;7.46;100.00;98743.09;5052415;28;20056;-87
2022/04/25 09:40:34;;;;;;;26.70;23.45;;;;;;;7.42;100.00;98729.44;5052469;28;20060;-86
2022/04/25 09:43:03;;;;;;;26.85;23.85;;;;;;;7.56;100.00;98754.66;5068697;28;20162;-86
2022/04/25 09:45:29;;;;;;;24.27;21.75;;;;;;;7.54;100.00;98740.09;5051937;28;20035;-86
2022/04/25 09:47:56;;;;;;;21.92;19.73;;;;;;;7.63;100.00;98747.44;5052085;28;20120;-86
2022/04/25 09:50:22;;;;;;;24.60;21.17;;;;;;;7.66;100.00;98752.47;5052370;28;20450;-88
2022/04/25 09:52:55;;;;;;;22.25;19.95;;;;;;;7.69;100.00;98754.91;5052300;28;20064;-86
2022/04/25 09:55:21;;;;;;;21.73;19.40;;;;;;;7.61;100.00;98752.69;5059768;28;20021;-86
2022/04/25 09:57:49;;;;;;;21.27;19.17;;;;;;;7.63;100.00;98760.41;5068488;28;20033;-86
2022/04/25 10:00:36;;;;;;;21.45;19.23;;;;;;;7.72;100.00;98759.94;5030808;28;20037;-86
2022/04/25 10:03:03;;;;;;;20.98;18.77;;;;;;;7.67;100.00;98756.75;5014185;28;20021;-85
2022/04/25 10:05:46;;;;;;;20.58;18.38;;;;;;;7.78;100.00;98759.63;5014226;28;20149;-86
2022/04/25 10:08:14;;;;;;;21.52;19.35;;;;;;;7.79;100.00;98776.03;5030614;28;20068;-86
2022/04/25 10:10:48;;;;;;;21.38;19.20;;;;;;;7.67;100.00;98765.38;5013927;28;20448;-86
2022/04/25 10:13:14;;;;;;;24.20;21.52;;;;;;;7.67;100.00;98773.13;5013862;28;20128;-86
2022/04/25 10:15:41;;;;;;;21.95;18.90;;;;;;;7.70;100.00;98782.50;5014040;28;20034;-86
2022/04/25 10:18:07;;;;;;;21.38;19.13;;;;;;;7.76;100.00;98792.59;5013819;28;20025;-85
2022/04/25 10:20:36;;;;;;;21.23;18.95;;;;;;;7.73;100.00;98779.75;5013956;28;20216;-85
2022/04/25 10:23:08;;;;;;;20.77;18.00;;;;;;;7.80;100.00;98785.50;5013536;28;20041;-85
2022/04/25 10:25:36;;;;;;;22.52;19.08;;;;;;;7.75;100.00;98794.34;5013696;28;20048;-85
2022/04/25 10:28:05;;;;;;;20.40;18.33;;;;;;;7.64;100.00;98782.81;5013760;28;20041;-87
2022/04/25 10:30:36;;;;;;;21.38;19.17;;;;;;;7.76;100.00;98800.38;5018693;28;20036;-84
2022/04/25 10:33:50;;;;;;;23.95;20.48;;;;;;;7.80;100.00;98794.13;5051180;28;20102;-87
2022/04/25 10:36:37;;;;;;;21.80;19.55;;;;;;;7.87;100.00;98808.44;4990885;28;20038;-85
2022/04/25 10:39:24;;;;;;;23.13;20.58;;;;;;;7.80;100.00;98803.66;4989989;28;20030;-86
2022/04/25 10:44:43;;;;;;;23.58;20.38;;;;;;;7.71;100.00;98823.91;4990902;28;20076;-85
2022/04/25 10:47:13;;;;;;;27.13;23.10;;;;;;;7.65;100.00;98816.41;4990366;28;20130;-85
2022/04/25 10:49:46;;;;;;;73.05;41.22;;;;;;;7.76;100.00;98823.69;4974507;28;20026;-85
2022/04/25 10:55:38;;;;;;;24.30;21.70;;;;;;;7.67;100.00;98830.16;5001074;28;20036;-86
2022/04/25 10:58:04;;;;;;;24.27;21.75;;;;;;;7.68;100.00;98829.25;5010161;28;20063;-86
2022/04/25 11:00:36;;;;;;;24.80;22.00;;;;;;;7.74;100.00;98835.88;4990265;28;20402;-86
2022/04/25 11:03:06;;;;;;;27.77;24.45;;;;;;;7.63;100.00;98825.19;4989598;28;20038;-86
2022/04/25 11:05:32;;;;;;;29.45;26.27;;;;;;;7.68;100.00;98837.00;4990010;28;20433;-86
2022/04/25 11:08:25;;;;;;;28.42;25.42;;;;;;;7.72;100.00;98842.91;4990650;28;20077;-85
2022/04/25 11:10:57;;;;;;;27.08;24.13;;;;;;;7.72;100.00;98848.06;4968214;28;20622;-85
2022/04/25 11:13:26;;;;;;;27.27;24.38;;;;;;;7.62;100.00;98834.69;4990298;28;20038;-86
2022/04/25 11:15:56;;;;;;;27.77;24.88;;;;;;;7.71;100.00;98844.66;4993507;28;20124;-86
2022/04/25 11:18:35;;;;;;;29.88;26.60;;;;;;;7.68;100.00;98843.94;4993385;28;20449;-86
2022/04/25 11:21:04;;;;;;;30.25;25.83;;;;;;;7.81;100.00;98868.38;4993735;28;20045;-86
2022/04/25 11:23:43;;;;;;;28.10;25.15;;;;;;;7.78;100.00;98855.56;5010007;28;20506;-85
2022/04/25 11:26:11;;;;;;;29.25;25.70;;;;;;;7.74;100.00;98852.25;4993490;28;20406;-85
2022/04/25 11:28:55;;;;;;;28.42;25.23;;;;;;;7.85;100.00;98871.66;4993490;28;20033;-86
2022/04/25 11:31:34;;;;;;;37.65;32.95;;;;;;;7.71;100.00;98860.22;5009668;28;20052;-85
2022/04/25 11:34:04;;;;;;;42.47;32.03;;;;;;;7.83;100.00;98873.47;4993233;28;20117;-86
2022/04/25 11:36:31;;;;;;;33.72;27.98;;;;;;;7.78;100.00;98889.25;4993400;28;20105;-85
2022/04/25 11:41:55;;;;;;;31.45;26.27;;;;;;;7.73;100.00;98889.47;4991254;28;20030;-85
2022/04/25 11:44:20;;;;;;;27.67;24.55;;;;;;;7.68;100.00;98883.66;4993276;28;20072;-86
2022/04/25 11:46:47;;;;;;;32.20;25.90;;;;;;;7.81;100.00;98898.66;5009383;28;20370;-86
2022/04/25 11:49:25;;;;;;;27.55;24.42;;;;;;;7.73;100.00;98886.03;5009848;28;20054;-86
2022/04/25 11:51:50;;;;;;;30.17;25.25;;;;;;;7.78;100.00;98899.63;4993613;28;20136;-86
2022/04/25 11:54:16;;;;;;;33.88;29.00;;;;;;;7.83;100.00;98907.16;4977096;28;20137;-86